sensor_id;sensor_type;location;lat;lon;timestamp;pressure;altitude;pressure_sealevel;temperature;humidity
19795;BME280;10057;59.402;17.866;2023-02-11T00:00:14;99902.44;;;2.06;71.35
19795;BME280;10057;59.402;17.866;2023-02-11T00:02:42;99898.06;;;2.07;71.58
19795;BME280;10057;59.402;17.866;2023-02-11T00:05:13;99913.75;;;2.07;71.72
19795;BME280;10057;59.402;17.866;2023-02-11T00:07:40;99902.47;;;2.03;71.88
19795;BME280;10057;59.402;17.866;2023-02-11T00:10:07;99899.84;;;2.03;72.17
19795;BME280;10057;59.402;17.866;2023-02-11T00:12:36;99896.34;;;2.06;72.01
19795;BME280;10057;59.402;17.866;2023-02-11T00:15:05;99899.75;;;2.09;72.33
19795;BME280;10057;59.402;17.866;2023-02-11T00:17:33;99891.00;;;2.12;72.14
19795;BME280;10057;59.402;17.866;2023-02-11T00:19:59;99897.91;;;2.16;72.16
19795;BME280;10057;59.402;17.866;2023-02-11T00:22:26;99884.78;;;2.18;71.77
19795;BME280;10057;59.402;17.866;2023-02-11T00:24:53;99882.16;;;2.19;72.04
19795;BME280;10057;59.402;17.866;2023-02-11T00:27:20;99882.09;;;2.22;72.03
19795;BME280;10057;59.402;17.866;2023-02-11T00:29:46;99881.22;;;2.23;72.02
19795;BME280;10057;59.402;17.866;2023-02-11T00:32:13;99877.75;;;2.23;72.39
19795;BME280;10057;59.402;17.866;2023-02-11T00:34:40;99881.19;;;2.26;72.49
19795;BME280;10057;59.402;17.866;2023-02-11T00:37:06;99872.47;;;2.26;72.24
19795;BME280;10057;59.402;17.866;2023-02-11T00:39:33;99861.09;;;2.27;72.58
19795;BME280;10057;59.402;17.866;2023-02-11T00:42:00;99853.25;;;2.27;72.07
19795;BME280;10057;59.402;17.866;2023-02-11T00:44:26;99855.81;;;2.28;72.27
19795;BME280;10057;59.402;17.866;2023-02-11T00:46:53;99852.34;;;2.28;72.41
19795;BME280;10057;59.402;17.866;2023-02-11T00:49:20;99849.72;;;2.29;72.34
19795;BME280;10057;59.402;17.866;2023-02-11T00:51:47;99859.25;;;2.32;72.71
19795;BME280;10057;59.402;17.866;2023-02-11T00:54:13;99857.47;;;2.34;72.42
19795;BME280;10057;59.402;17.866;2023-02-11T00:56:40;99860.94;;;2.34;72.42
19795;BME280;10057;59.402;17.866;2023-02-11T00:59:07;99859.19;;;2.36;72.80
19795;BME280;10057;59.402;17.866;2023-02-11T01:01:34;99862.66;;;2.35;72.72
19795;BME280;10057;59.402;17.866;2023-02-11T01:04:01;99859.19;;;2.36;72.99
19795;BME280;10057;59.402;17.866;2023-02-11T01:06:28;99856.56;;;2.36;72.42
19795;BME280;10057;59.402;17.866;2023-02-11T01:08:55;99859.19;;;2.36;72.66
19795;BME280;10057;59.402;17.866;2023-02-11T01:11:22;99856.56;;;2.36;73.04
19795;BME280;10057;59.402;17.866;2023-02-11T01:13:49;99854.81;;;2.37;72.97
19795;BME280;10057;59.402;17.866;2023-02-11T01:16:16;99852.19;;;2.37;72.79
19795;BME280;10057;59.402;17.866;2023-02-11T01:18:44;99858.28;;;2.37;73.03
19795;BME280;10057;59.402;17.866;2023-02-11T01:21:11;99860.94;;;2.36;72.90
19795;BME280;10057;59.402;17.866;2023-02-11T01:23:37;99850.47;;;2.36;72.81
19795;BME280;10057;59.402;17.866;2023-02-11T01:26:04;99852.19;;;2.35;72.81
19795;BME280;10057;59.402;17.866;2023-02-11T01:28:31;99847.84;;;2.36;72.69
19795;BME280;10057;59.402;17.866;2023-02-11T01:30:59;99833.00;;;2.36;73.04
19795;BME280;10057;59.402;17.866;2023-02-11T01:33:26;99835.63;;;2.35;73.10
19795;BME280;10057;59.402;17.866;2023-02-11T01:35:53;99834.72;;;2.37;73.29
19795;BME280;10057;59.402;17.866;2023-02-11T01:38:24;99836.50;;;2.35;73.12
19795;BME280;10057;59.402;17.866;2023-02-11T01:40:54;99859.19;;;2.36;73.01
19795;BME280;10057;59.402;17.866;2023-02-11T01:43:22;99854.81;;;2.35;73.18
19795;BME280;10057;59.402;17.866;2023-02-11T01:45:54;99861.84;;;2.33;73.52
19795;BME280;10057;59.402;17.866;2023-02-11T01:51:37;99846.19;;;2.30;73.28
19795;BME280;10057;59.402;17.866;2023-02-11T01:54:09;99851.38;;;2.33;73.64
19795;BME280;10057;59.402;17.866;2023-02-11T01:56:57;99853.94;;;2.36;73.41
19795;BME280;10057;59.402;17.866;2023-02-11T02:02:22;99848.66;;;2.40;73.54
19795;BME280;10057;59.402;17.866;2023-02-11T02:04:56;99835.56;;;2.40;73.35
19795;BME280;10057;59.402;17.866;2023-02-11T02:07:35;99840.81;;;2.40;73.53
19795;BME280;10057;59.402;17.866;2023-02-11T02:10:09;99846.00;;;2.41;73.67
19795;BME280;10057;59.402;17.866;2023-02-11T02:12:37;99846.03;;;2.40;73.37
19795;BME280;10057;59.402;17.866;2023-02-11T02:15:33;99846.00;;;2.41;73.63
19795;BME280;10057;59.402;17.866;2023-02-11T02:32:34;99856.56;;;2.35;73.96
19795;BME280;10057;59.402;17.866;2023-02-11T02:40:31;99877.50;;;2.36;74.50
19795;BME280;10057;59.402;17.866;2023-02-11T02:42:59;99874.88;;;2.36;74.50
19795;BME280;10057;59.402;17.866;2023-02-11T02:45:27;99880.94;;;2.40;74.82
19795;BME280;10057;59.402;17.866;2023-02-11T02:47:54;99886.13;;;2.42;75.25
19795;BME280;10057;59.402;17.866;2023-02-11T02:50:28;99882.59;;;2.43;75.43
19795;BME280;10057;59.402;17.866;2023-02-11T02:55:51;99884.25;;;2.48;75.54
19795;BME280;10057;59.402;17.866;2023-02-11T03:06:39;99903.50;;;2.47;75.60
19795;BME280;10057;59.402;17.866;2023-02-11T03:12:14;99909.59;;;2.48;75.97
19795;BME280;10057;59.402;17.866;2023-02-11T03:14:46;99916.59;;;2.46;76.51
19795;BME280;10057;59.402;17.866;2023-02-11T03:17:16;99921.78;;;2.49;76.36
19795;BME280;10057;59.402;17.866;2023-02-11T03:19:45;99919.13;;;2.52;76.69
19795;BME280;10057;59.402;17.866;2023-02-11T03:22:18;99922.59;;;2.52;76.59
19795;BME280;10057;59.402;17.866;2023-02-11T03:24:47;99928.69;;;2.53;76.43
19795;BME280;10057;59.402;17.866;2023-02-11T03:27:44;99938.25;;;2.57;76.39
19795;BME280;10057;59.402;17.866;2023-02-11T03:30:17;99951.22;;;2.63;76.83
19795;BME280;10057;59.402;17.866;2023-02-11T03:32:52;99954.72;;;2.64;76.87
19795;BME280;10057;59.402;17.866;2023-02-11T03:35:24;99952.06;;;2.65;77.01
19795;BME280;10057;59.402;17.866;2023-02-11T03:38:05;99954.72;;;2.64;76.70
19795;BME280;10057;59.402;17.866;2023-02-11T03:40:37;99956.47;;;2.61;77.06
19795;BME280;10057;59.402;17.866;2023-02-11T03:43:20;99954.78;;;2.60;77.07
19795;BME280;10057;59.402;17.866;2023-02-11T03:45:49;99949.53;;;2.59;76.77
19795;BME280;10057;59.402;17.866;2023-02-11T03:48:23;99953.06;;;2.58;76.79
19795;BME280;10057;59.402;17.866;2023-02-11T03:50:52;99968.84;;;2.53;77.08
19795;BME280;10057;59.402;17.866;2023-02-11T03:53:21;99981.16;;;2.48;77.14
19795;BME280;10057;59.402;17.866;2023-02-11T03:55:49;99986.50;;;2.41;76.99
19795;BME280;10057;59.402;17.866;2023-02-11T03:58:18;99991.84;;;2.34;77.05
19795;BME280;10057;59.402;17.866;2023-02-11T04:00:45;99998.88;;;2.31;77.58
19795;BME280;10057;59.402;17.866;2023-02-11T04:03:12;100002.44;;;2.27;77.09
19795;BME280;10057;59.402;17.866;2023-02-11T04:05:39;100008.56;;;2.24;77.25
19795;BME280;10057;59.402;17.866;2023-02-11T04:08:06;100017.34;;;2.20;77.58
19795;BME280;10057;59.402;17.866;2023-02-11T04:10:33;100020.06;;;2.14;77.35
19795;BME280;10057;59.402;17.866;2023-02-11T04:13:00;100015.75;;;2.08;77.13
19795;BME280;10057;59.402;17.866;2023-02-11T04:15:27;100031.53;;;2.05;77.64
19795;BME280;10057;59.402;17.866;2023-02-11T04:17:54;100031.59;;;1.99;77.18
19795;BME280;10057;59.402;17.866;2023-02-11T04:20:21;100034.38;;;1.88;77.52
19795;BME280;10057;59.402;17.866;2023-02-11T04:22:48;100042.31;;;1.79;77.65
19795;BME280;10057;59.402;17.866;2023-02-11T04:25:14;100043.25;;;1.74;77.72
19795;BME280;10057;59.402;17.866;2023-02-11T04:27:41;100046.72;;;1.74;77.67
19795;BME280;10057;59.402;17.866;2023-02-11T04:30:08;100046.69;;;1.77;77.56
19795;BME280;10057;59.402;17.866;2023-02-11T04:32:35;100048.50;;;1.72;77.70
19795;BME280;10057;59.402;17.866;2023-02-11T04:35:02;100066.00;;;1.67;77.82
19795;BME280;10057;59.402;17.866;2023-02-11T04:37:29;100061.69;;;1.63;77.92
19795;BME280;10057;59.402;17.866;2023-02-11T04:39:56;100072.19;;;1.61;77.76
19795;BME280;10057;59.402;17.866;2023-02-11T04:42:23;100068.66;;;1.62;77.62
19795;BME280;10057;59.402;17.866;2023-02-11T04:44:50;100082.66;;;1.58;77.54
19795;BME280;10057;59.402;17.866;2023-02-11T04:47:17;100093.13;;;1.58;77.64
19795;BME280;10057;59.402;17.866;2023-02-11T04:49:43;100100.94;;;1.60;77.30
19795;BME280;10057;59.402;17.866;2023-02-11T04:52:10;100109.66;;;1.60;77.25
19795;BME280;10057;59.402;17.866;2023-02-11T04:54:37;100121.00;;;1.61;77.36
19795;BME280;10057;59.402;17.866;2023-02-11T04:57:04;100123.63;;;1.59;77.41
19795;BME280;10057;59.402;17.866;2023-02-11T04:59:30;100121.00;;;1.59;77.32
19795;BME280;10057;59.402;17.866;2023-02-11T05:01:57;100134.06;;;1.61;77.42
19795;BME280;10057;59.402;17.866;2023-02-11T05:04:24;100137.53;;;1.63;77.14
19795;BME280;10057;59.402;17.866;2023-02-11T05:06:51;100152.34;;;1.62;77.37
19795;BME280;10057;59.402;17.866;2023-02-11T05:09:17;100134.06;;;1.61;76.61
19795;BME280;10057;59.402;17.866;2023-02-11T05:11:44;100147.16;;;1.59;76.92
19795;BME280;10057;59.402;17.866;2023-02-11T05:14:11;100148.13;;;1.51;76.66
19795;BME280;10057;59.402;17.866;2023-02-11T05:16:39;100171.66;;;1.49;76.74
19795;BME280;10057;59.402;17.866;2023-02-11T05:19:06;100176.03;;;1.47;76.96
19795;BME280;10057;59.402;17.866;2023-02-11T05:21:32;100187.38;;;1.45;76.72
19795;BME280;10057;59.402;17.866;2023-02-11T05:23:59;100188.28;;;1.40;76.71
19795;BME280;10057;59.402;17.866;2023-02-11T05:26:26;100205.72;;;1.38;76.49
19795;BME280;10057;59.402;17.866;2023-02-11T05:28:53;100217.09;;;1.34;76.85
19795;BME280;10057;59.402;17.866;2023-02-11T05:31:20;100204.91;;;1.32;76.53
19795;BME280;10057;59.402;17.866;2023-02-11T05:33:46;100211.88;;;1.30;76.33
19795;BME280;10057;59.402;17.866;2023-02-11T05:36:13;100213.66;;;1.28;76.68
19795;BME280;10057;59.402;17.866;2023-02-11T05:38:42;100220.66;;;1.21;76.07
19795;BME280;10057;59.402;17.866;2023-02-11T05:41:10;100227.72;;;1.13;76.16
19795;BME280;10057;59.402;17.866;2023-02-11T05:43:37;100235.59;;;1.07;76.76
19795;BME280;10057;59.402;17.866;2023-02-11T05:46:04;100257.38;;;1.01;76.03
19795;BME280;10057;59.402;17.866;2023-02-11T05:48:31;100271.34;;;0.97;75.93
19795;BME280;10057;59.402;17.866;2023-02-11T05:50:58;100279.22;;;0.92;75.82
19795;BME280;10057;59.402;17.866;2023-02-11T05:53:25;100284.44;;;0.92;75.96
19795;BME280;10057;59.402;17.866;2023-02-11T05:55:51;100300.13;;;0.89;75.94
19795;BME280;10057;59.402;17.866;2023-02-11T05:58:18;100300.97;;;0.85;75.72
19795;BME280;10057;59.402;17.866;2023-02-11T06:00:45;100301.00;;;0.81;75.91
19795;BME280;10057;59.402;17.866;2023-02-11T06:03:12;100310.59;;;0.77;75.66
19795;BME280;10057;59.402;17.866;2023-02-11T06:05:39;100322.81;;;0.74;75.59
19795;BME280;10057;59.402;17.866;2023-02-11T06:08:05;100327.16;;;0.70;75.45
19795;BME280;10057;59.402;17.866;2023-02-11T06:10:32;100330.66;;;0.66;75.46
19795;BME280;10057;59.402;17.866;2023-02-11T06:13:00;100351.53;;;0.64;75.59
19795;BME280;10057;59.402;17.866;2023-02-11T06:15:27;100362.88;;;0.60;75.42
19795;BME280;10057;59.402;17.866;2023-02-11T06:17:54;100366.34;;;0.58;75.43
19795;BME280;10057;59.402;17.866;2023-02-11T06:20:21;100380.31;;;0.58;75.66
19795;BME280;10057;59.402;17.866;2023-02-11T06:22:47;100374.19;;;0.58;75.25
19795;BME280;10057;59.402;17.866;2023-02-11T06:25:14;100385.53;;;0.58;75.23
19795;BME280;10057;59.402;17.866;2023-02-11T06:27:41;100382.00;;;0.61;75.19
19795;BME280;10057;59.402;17.866;2023-02-11T06:30:08;100382.91;;;0.57;75.17
19795;BME280;10057;59.402;17.866;2023-02-11T06:32:35;100403.78;;;0.57;75.08
19795;BME280;10057;59.402;17.866;2023-02-11T06:35:11;100410.75;;;0.53;75.00
19795;BME280;10057;59.402;17.866;2023-02-11T06:37:39;100405.53;;;0.47;75.17
19795;BME280;10057;59.402;17.866;2023-02-11T06:40:06;100404.69;;;0.45;75.04
19795;BME280;10057;59.402;17.866;2023-02-11T06:42:33;100418.59;;;0.42;75.05
19795;BME280;10057;59.402;17.866;2023-02-11T06:45:02;100416.88;;;0.35;74.97
19795;BME280;10057;59.402;17.866;2023-02-11T06:47:31;100425.59;;;0.31;75.06
19795;BME280;10057;59.402;17.866;2023-02-11T06:49:58;100430.78;;;0.28;75.02
19795;BME280;10057;59.402;17.866;2023-02-11T06:52:25;100433.38;;;0.23;75.20
19795;BME280;10057;59.402;17.866;2023-02-11T06:54:51;100440.34;;;0.20;75.29
19795;BME280;10057;59.402;17.866;2023-02-11T06:57:18;100458.63;;;0.18;75.12
19795;BME280;10057;59.402;17.866;2023-02-11T06:59:45;100469.03;;;0.17;75.13
19795;BME280;10057;59.402;17.866;2023-02-11T07:02:11;100488.16;;;0.13;74.81
19795;BME280;10057;59.402;17.866;2023-02-11T07:04:38;100499.47;;;0.12;75.15
19795;BME280;10057;59.402;17.866;2023-02-11T07:07:05;100502.06;;;0.10;75.19
19795;BME280;10057;59.402;17.866;2023-02-11T07:09:32;100517.75;;;0.09;75.00
19795;BME280;10057;59.402;17.866;2023-02-11T07:11:59;100529.03;;;0.05;75.01
19795;BME280;10057;59.402;17.866;2023-02-11T07:14:25;100546.44;;;0.04;75.14
19795;BME280;10057;59.402;17.866;2023-02-11T07:16:52;100552.50;;;0.02;75.18
19795;BME280;10057;59.402;17.866;2023-02-11T07:19:19;100565.53;;;0.02;75.25
19795;BME280;10057;59.402;17.866;2023-02-11T07:21:45;100575.97;;;0.02;74.87
19795;BME280;10057;59.402;17.866;2023-02-11T07:24:14;100580.31;;;-0.01;75.06
19795;BME280;10057;59.402;17.866;2023-02-11T07:26:41;100595.06;;;-0.07;74.96
19795;BME280;10057;59.402;17.866;2023-02-11T07:29:07;100589.84;;;-0.09;75.25
19795;BME280;10057;59.402;17.866;2023-02-11T07:31:34;100595.06;;;-0.09;75.29
19795;BME280;10057;59.402;17.866;2023-02-11T07:34:02;100606.38;;;-0.13;75.03
19795;BME280;10057;59.402;17.866;2023-02-11T07:36:29;100609.84;;;-0.12;75.26
19795;BME280;10057;59.402;17.866;2023-02-11T07:38:57;100618.53;;;-0.12;75.48
19795;BME280;10057;59.402;17.866;2023-02-11T07:41:26;100620.28;;;-0.05;75.43
19795;BME280;10057;59.402;17.866;2023-02-11T07:43:52;100625.53;;;-0.02;75.31
19795;BME280;10057;59.402;17.866;2023-02-11T07:46:25;100644.66;;;0.01;75.19
19795;BME280;10057;59.402;17.866;2023-02-11T07:48:52;100658.56;;;-0.07;74.92
19795;BME280;10057;59.402;17.866;2023-02-11T07:51:25;100671.56;;;-0.11;75.16
19795;BME280;10057;59.402;17.866;2023-02-11T07:53:52;100673.25;;;-0.18;75.19
19795;BME280;10057;59.402;17.866;2023-02-11T07:56:19;100684.56;;;-0.19;75.38
19795;BME280;10057;59.402;17.866;2023-02-11T07:58:50;100692.41;;;-0.16;75.24
19795;BME280;10057;59.402;17.866;2023-02-11T08:01:19;100702.81;;;-0.20;75.30
19795;BME280;10057;59.402;17.866;2023-02-11T08:03:48;100706.25;;;-0.21;75.19
19795;BME280;10057;59.402;17.866;2023-02-11T08:06:17;100720.16;;;-0.21;75.54
19795;BME280;10057;59.402;17.866;2023-02-11T08:08:45;100721.03;;;-0.22;75.28
19795;BME280;10057;59.402;17.866;2023-02-11T08:11:24;100744.50;;;-0.23;75.52
19795;BME280;10057;59.402;17.866;2023-02-11T08:13:52;100755.84;;;-0.17;75.36
19795;BME280;10057;59.402;17.866;2023-02-11T08:16:22;100755.84;;;-0.14;75.57
19795;BME280;10057;59.402;17.866;2023-02-11T08:18:50;100760.16;;;-0.22;75.53
19795;BME280;10057;59.402;17.866;2023-02-11T08:21:19;100775.81;;;-0.20;75.38
19795;BME280;10057;59.402;17.866;2023-02-11T08:23:46;100783.63;;;-0.22;75.19
19795;BME280;10057;59.402;17.866;2023-02-11T08:26:15;100794.06;;;-0.22;75.61
19795;BME280;10057;59.402;17.866;2023-02-11T08:28:43;100801.88;;;-0.23;75.05
19795;BME280;10057;59.402;17.866;2023-02-11T08:31:16;100797.53;;;-0.21;75.39
19795;BME280;10057;59.402;17.866;2023-02-11T08:33:43;100812.34;;;-0.16;75.47
19795;BME280;10057;59.402;17.866;2023-02-11T08:36:22;100823.72;;;-0.08;75.58
19795;BME280;10057;59.402;17.866;2023-02-11T08:38:49;100843.72;;;-0.04;75.49
19795;BME280;10057;59.402;17.866;2023-02-11T08:41:17;100855.09;;;0.02;75.37
19795;BME280;10057;59.402;17.866;2023-02-11T08:43:44;100883.78;;;0.03;75.20
19795;BME280;10057;59.402;17.866;2023-02-11T08:46:17;100889.88;;;0.01;75.17
19795;BME280;10057;59.402;17.866;2023-02-11T08:48:45;100901.19;;;0.01;75.11
19795;BME280;10057;59.402;17.866;2023-02-11T08:51:15;100917.72;;;0.05;75.26
19795;BME280;10057;59.402;17.866;2023-02-11T08:53:41;100924.72;;;0.09;74.91
19795;BME280;10057;59.402;17.866;2023-02-11T08:56:10;100940.41;;;0.12;75.11
19795;BME280;10057;59.402;17.866;2023-02-11T08:58:39;100947.31;;;0.10;74.81
19795;BME280;10057;59.402;17.866;2023-02-11T09:01:17;100949.94;;;0.10;74.96
19795;BME280;10057;59.402;17.866;2023-02-11T09:03:48;100957.78;;;0.13;74.83
19795;BME280;10057;59.402;17.866;2023-02-11T09:06:15;100969.09;;;0.12;74.77
19795;BME280;10057;59.402;17.866;2023-02-11T09:08:45;100975.19;;;0.11;74.92
19795;BME280;10057;59.402;17.866;2023-02-11T09:11:12;101000.38;;;0.09;74.58
19795;BME280;10057;59.402;17.866;2023-02-11T09:13:41;101006.47;;;0.08;74.85
19795;BME280;10057;59.402;17.866;2023-02-11T09:16:17;101007.38;;;0.11;74.90
19795;BME280;10057;59.402;17.866;2023-02-11T09:18:44;101009.09;;;0.12;74.86
19795;BME280;10057;59.402;17.866;2023-02-11T09:21:11;101031.75;;;0.16;74.54
19795;BME280;10057;59.402;17.866;2023-02-11T09:23:39;101050.91;;;0.18;74.82
19795;BME280;10057;59.402;17.866;2023-02-11T09:26:21;101055.25;;;0.15;74.41
19795;BME280;10057;59.402;17.866;2023-02-11T09:28:48;101066.53;;;0.14;74.68
19795;BME280;10057;59.402;17.866;2023-02-11T09:31:20;101072.63;;;0.16;74.80
19795;BME280;10057;59.402;17.866;2023-02-11T09:33:48;101088.31;;;0.20;74.73
19795;BME280;10057;59.402;17.866;2023-02-11T09:36:22;101105.81;;;0.26;74.59
19795;BME280;10057;59.402;17.866;2023-02-11T09:38:49;101103.19;;;0.25;74.45
19795;BME280;10057;59.402;17.866;2023-02-11T09:43:55;101136.00;;;0.06;73.97
19795;BME280;10057;59.402;17.866;2023-02-11T09:46:23;101135.09;;;0.01;74.16
19795;BME280;10057;59.402;17.866;2023-02-11T09:48:53;101137.72;;;0.02;74.30
19795;BME280;10057;59.402;17.866;2023-02-11T09:51:53;101145.56;;;0.07;74.11
19795;BME280;10057;59.402;17.866;2023-02-11T09:54:30;101150.78;;;0.07;74.16
19795;BME280;10057;59.402;17.866;2023-02-11T09:56:59;101156.06;;;0.10;74.23
19795;BME280;10057;59.402;17.866;2023-02-11T09:59:26;101170.91;;;0.17;74.36
19795;BME280;10057;59.402;17.866;2023-02-11T10:01:57;101182.31;;;0.22;74.35
19795;BME280;10057;59.402;17.866;2023-02-11T10:07:06;101183.19;;;0.21;74.03
19795;BME280;10057;59.402;17.866;2023-02-11T10:09:48;101187.50;;;0.19;73.90
19795;BME280;10057;59.402;17.866;2023-02-11T10:12:29;101196.19;;;0.18;73.81
19795;BME280;10057;59.402;17.866;2023-02-11T10:15:12;101209.19;;;0.15;73.72
19795;BME280;10057;59.402;17.866;2023-02-11T10:23:25;101239.50;;;0.07;73.83
19795;BME280;10057;59.402;17.866;2023-02-11T10:25:54;101238.59;;;0.02;73.80
19795;BME280;10057;59.402;17.866;2023-02-11T10:28:27;101244.72;;;0.04;73.75
19795;BME280;10057;59.402;17.866;2023-02-11T10:30:58;101249.06;;;0.06;73.64
19795;BME280;10057;59.402;17.866;2023-02-11T10:34:01;101255.09;;;0.01;73.49
19795;BME280;10057;59.402;17.866;2023-02-11T10:36:33;101262.94;;;0.01;73.46
19795;BME280;10057;59.402;17.866;2023-02-11T10:39:18;101274.19;;;-0.01;73.26
19795;BME280;10057;59.402;17.866;2023-02-11T10:41:58;101269.88;;;0.02;73.74
19795;BME280;10057;59.402;17.866;2023-02-11T10:47:23;101273.44;;;0.07;73.94
19795;BME280;10057;59.402;17.866;2023-02-11T10:49:49;101292.59;;;0.09;73.76
19795;BME280;10057;59.402;17.866;2023-02-11T10:55:14;101311.84;;;0.15;73.51
19795;BME280;10057;59.402;17.866;2023-02-11T10:57:55;101316.13;;;0.12;73.05
19795;BME280;10057;59.402;17.866;2023-02-11T11:00:32;101313.47;;;0.09;73.29
19795;BME280;10057;59.402;17.866;2023-02-11T11:03:03;101317.81;;;0.10;73.43
19795;BME280;10057;59.402;17.866;2023-02-11T11:05:35;101332.50;;;0.02;73.09
19795;BME280;10057;59.402;17.866;2023-02-11T11:08:07;101346.31;;;-0.04;73.02
19795;BME280;10057;59.402;17.866;2023-02-11T11:10:45;101354.88;;;-0.13;72.96
19795;BME280;10057;59.402;17.866;2023-02-11T11:13:52;101360.06;;;-0.16;73.14
19795;BME280;10057;59.402;17.866;2023-02-11T11:16:29;101374.94;;;-0.09;73.38
19795;BME280;10057;59.402;17.866;2023-02-11T11:21:42;101402.91;;;-0.02;73.15
19795;BME280;10057;59.402;17.866;2023-02-11T11:24:32;101411.59;;;-0.01;72.85
19795;BME280;10057;59.402;17.866;2023-02-11T11:27:02;101411.63;;;0.01;73.29
19795;BME280;10057;59.402;17.866;2023-02-11T11:29:36;101418.59;;;0.02;73.38
19795;BME280;10057;59.402;17.866;2023-02-11T11:32:27;101424.72;;;0.04;73.02
19795;BME280;10057;59.402;17.866;2023-02-11T11:35:03;101424.75;;;0.07;72.83
19795;BME280;10057;59.402;17.866;2023-02-11T11:37:35;101447.47;;;0.11;72.85
19795;BME280;10057;59.402;17.866;2023-02-11T11:40:09;101452.69;;;0.12;72.70
19795;BME280;10057;59.402;17.866;2023-02-11T11:42:38;101460.59;;;0.17;72.88
19795;BME280;10057;59.402;17.866;2023-02-11T11:50:22;101484.94;;;0.16;72.53
19795;BME280;10057;59.402;17.866;2023-02-11T11:52:53;101498.91;;;0.18;72.66
19795;BME280;10057;59.402;17.866;2023-02-11T11:55:28;101491.13;;;0.21;72.61
19795;BME280;10057;59.402;17.866;2023-02-11T11:57:57;101512.94;;;0.26;72.72
19795;BME280;10057;59.402;17.866;2023-02-11T12:00:34;101518.19;;;0.26;72.39
19795;BME280;10057;59.402;17.866;2023-02-11T12:09:35;101533.09;;;0.33;72.51
19795;BME280;10057;59.402;17.866;2023-02-11T12:26:17;101579.75;;;0.63;72.18
19795;BME280;10057;59.402;17.866;2023-02-11T12:37:21;101592.91;;;0.71;71.85
19795;BME280;10057;59.402;17.866;2023-02-11T12:49:22;101625.47;;;0.91;71.79
19795;BME280;10057;59.402;17.866;2023-02-11T12:54:41;101645.56;;;0.95;71.72
19795;BME280;10057;59.402;17.866;2023-02-11T12:57:28;101655.13;;;0.93;70.84
19795;BME280;10057;59.402;17.866;2023-02-11T13:00:11;101658.38;;;0.80;71.14
19795;BME280;10057;59.402;17.866;2023-02-11T13:05:24;101686.16;;;0.75;71.54
19795;BME280;10057;59.402;17.866;2023-02-11T13:08:02;101690.44;;;0.71;71.33
19795;BME280;10057;59.402;17.866;2023-02-11T13:10:36;101685.00;;;0.59;70.40
19795;BME280;10057;59.402;17.866;2023-02-11T13:13:18;101682.09;;;0.44;70.24
19795;BME280;10057;59.402;17.866;2023-02-11T13:16:12;101685.41;;;0.35;70.81
19795;BME280;10057;59.402;17.866;2023-02-11T13:19:01;101695.94;;;0.40;71.12
19795;BME280;10057;59.402;17.866;2023-02-11T13:24:59;101716.97;;;0.47;70.77
19795;BME280;10057;59.402;17.866;2023-02-11T13:27:42;101716.97;;;0.47;70.27
19795;BME280;10057;59.402;17.866;2023-02-11T13:30:31;101726.41;;;0.41;70.47
19795;BME280;10057;59.402;17.866;2023-02-11T13:33:04;101722.09;;;0.41;70.71
19795;BME280;10057;59.402;17.866;2023-02-11T13:35:40;101729.97;;;0.44;70.48
19795;BME280;10057;59.402;17.866;2023-02-11T13:38:20;101738.81;;;0.51;70.62
19795;BME280;10057;59.402;17.866;2023-02-11T13:41:15;101745.81;;;0.52;70.56
19795;BME280;10057;59.402;17.866;2023-02-11T13:43:43;101754.47;;;0.50;70.20
19795;BME280;10057;59.402;17.866;2023-02-11T13:46:12;101755.19;;;0.42;70.14
19795;BME280;10057;59.402;17.866;2023-02-11T13:48:50;101762.03;;;0.37;70.29
19795;BME280;10057;59.402;17.866;2023-02-11T13:51:34;101763.81;;;0.38;70.17
19795;BME280;10057;59.402;17.866;2023-02-11T13:54:03;101772.59;;;0.43;70.54
19795;BME280;10057;59.402;17.866;2023-02-11T13:59:04;101781.44;;;0.50;70.19
19795;BME280;10057;59.402;17.866;2023-02-11T14:13:32;101817.47;;;0.26;69.87
19795;BME280;10057;59.402;17.866;2023-02-11T14:16:16;101824.38;;;0.22;69.69
19795;BME280;10057;59.402;17.866;2023-02-11T14:19:02;101833.78;;;0.15;69.11
19795;BME280;10057;59.402;17.866;2023-02-11T14:21:32;101847.53;;;0.08;68.89
19795;BME280;10057;59.402;17.866;2023-02-11T14:29:15;101864.78;;;0.02;69.30
19795;BME280;10057;59.402;17.866;2023-02-11T14:37:34;101894.03;;;-0.12;68.70
19795;BME280;10057;59.402;17.866;2023-02-11T14:40:17;101899.22;;;-0.13;69.00
19795;BME280;10057;59.402;17.866;2023-02-11T14:42:50;101900.00;;;-0.16;68.77
19795;BME280;10057;59.402;17.866;2023-02-11T14:45:21;101908.69;;;-0.17;68.74
19795;BME280;10057;59.402;17.866;2023-02-11T14:47:56;101917.25;;;-0.21;68.90
19795;BME280;10057;59.402;17.866;2023-02-11T14:50:31;101918.97;;;-0.23;68.60
19795;BME280;10057;59.402;17.866;2023-02-11T14:53:00;101927.59;;;-0.24;68.75
19795;BME280;10057;59.402;17.866;2023-02-11T14:55:31;101923.25;;;-0.25;68.75
19795;BME280;10057;59.402;17.866;2023-02-11T14:58:20;101925.84;;;-0.25;68.98
19795;BME280;10057;59.402;17.866;2023-02-11T15:00:56;101937.31;;;-0.20;69.10
19795;BME280;10057;59.402;17.866;2023-02-11T15:03:25;101939.16;;;-0.16;68.97
19795;BME280;10057;59.402;17.866;2023-02-11T15:05:58;101934.00;;;-0.13;69.22
19795;BME280;10057;59.402;17.866;2023-02-11T15:08:27;101935.66;;;-0.16;68.99
19795;BME280;10057;59.402;17.866;2023-02-11T15:11:00;101949.50;;;-0.19;69.00
19795;BME280;10057;59.402;17.866;2023-02-11T15:13:29;101952.03;;;-0.22;69.13
19795;BME280;10057;59.402;17.866;2023-02-11T15:16:07;101961.66;;;-0.19;69.42
19795;BME280;10057;59.402;17.866;2023-02-11T15:18:40;101971.94;;;-0.24;69.21
19795;BME280;10057;59.402;17.866;2023-02-11T15:21:10;101990.88;;;-0.31;69.14
19795;BME280;10057;59.402;17.866;2023-02-11T15:23:37;101986.34;;;-0.38;69.13
19795;BME280;10057;59.402;17.866;2023-02-11T15:26:17;102000.13;;;-0.44;68.97